sensor_id;sensor_type;location;lat;lon;timestamp;pressure;altitude;pressure_sealevel;temperature
71564;BMP180;59391;52.504;13.438;2023-03-01T00:00:17;102721.00;;;5.60
71564;BMP180;59391;52.504;13.438;2023-03-01T00:03:21;102724.00;;;5.60
71564;BMP180;59391;52.504;13.438;2023-03-01T00:05:47;102718.00;;;5.60
71564;BMP180;59391;52.504;13.438;2023-03-01T00:08:12;102737.00;;;5.50
71564;BMP180;59391;52.504;13.438;2023-03-01T00:10:38;102705.00;;;5.50
71564;BMP180;59391;52.504;13.438;2023-03-01T00:13:04;102713.00;;;5.50
71564;BMP180;59391;52.504;13.438;2023-03-01T00:15:31;102701.00;;;5.50
71564;BMP180;59391;52.504;13.438;2023-03-01T00:17:57;102718.00;;;5.50
71564;BMP180;59391;52.504;13.438;2023-03-01T00:20:23;102721.00;;;5.50
71564;BMP180;59391;52.504;13.438;2023-03-01T00:22:49;102712.00;;;5.40
71564;BMP180;59391;52.504;13.438;2023-03-01T00:25:14;102703.00;;;5.40
71564;BMP180;59391;52.504;13.438;2023-03-01T00:27:40;102694.00;;;5.40
71564;BMP180;59391;52.504;13.438;2023-03-01T00:30:07;102705.00;;;5.40
71564;BMP180;59391;52.504;13.438;2023-03-01T00:32:36;102711.00;;;5.40
71564;BMP180;59391;52.504;13.438;2023-03-01T00:35:02;102701.00;;;5.40
71564;BMP180;59391;52.504;13.438;2023-03-01T00:37:27;102700.00;;;5.40
71564;BMP180;59391;52.504;13.438;2023-03-01T00:39:56;102703.00;;;5.40
71564;BMP180;59391;52.504;13.438;2023-03-01T00:42:22;102696.00;;;5.30
71564;BMP180;59391;52.504;13.438;2023-03-01T00:44:47;102684.00;;;5.30
71564;BMP180;59391;52.504;13.438;2023-03-01T00:47:13;102693.00;;;5.30
71564;BMP180;59391;52.504;13.438;2023-03-01T00:49:41;102675.00;;;5.30
71564;BMP180;59391;52.504;13.438;2023-03-01T00:52:07;102692.00;;;5.30
71564;BMP180;59391;52.504;13.438;2023-03-01T00:54:32;102690.00;;;5.30
71564;BMP180;59391;52.504;13.438;2023-03-01T00:56:58;102701.00;;;5.30
71564;BMP180;59391;52.504;13.438;2023-03-01T00:59:24;102711.00;;;5.20
71564;BMP180;59391;52.504;13.438;2023-03-01T01:01:49;102684.00;;;5.20
71564;BMP180;59391;52.504;13.438;2023-03-01T01:04:15;102691.00;;;5.20
71564;BMP180;59391;52.504;13.438;2023-03-01T01:07:12;102677.00;;;5.10
71564;BMP180;59391;52.504;13.438;2023-03-01T01:09:49;102671.00;;;5.20
71564;BMP180;59391;52.504;13.438;2023-03-01T01:12:15;102691.00;;;5.20
71564;BMP180;59391;52.504;13.438;2023-03-01T01:14:40;102671.00;;;5.20
71564;BMP180;59391;52.504;13.438;2023-03-01T01:17:06;102697.00;;;5.20
71564;BMP180;59391;52.504;13.438;2023-03-01T01:19:32;102682.00;;;5.10
71564;BMP180;59391;52.504;13.438;2023-03-01T01:21:58;102690.00;;;5.10
71564;BMP180;59391;52.504;13.438;2023-03-01T01:24:24;102682.00;;;5.10
71564;BMP180;59391;52.504;13.438;2023-03-01T01:26:49;102670.00;;;5.10
71564;BMP180;59391;52.504;13.438;2023-03-01T01:29:15;102675.00;;;5.10
71564;BMP180;59391;52.504;13.438;2023-03-01T01:31:42;102668.00;;;5.10
71564;BMP180;59391;52.504;13.438;2023-03-01T01:34:15;102647.00;;;5.10
71564;BMP180;59391;52.504;13.438;2023-03-01T01:36:42;102630.00;;;5.10
71564;BMP180;59391;52.504;13.438;2023-03-01T01:39:08;102633.00;;;5.10
71564;BMP180;59391;52.504;13.438;2023-03-01T01:41:41;102643.00;;;5.00
71564;BMP180;59391;52.504;13.438;2023-03-01T01:44:25;102654.00;;;5.00
71564;BMP180;59391;52.504;13.438;2023-03-01T01:47:00;102646.00;;;5.00
71564;BMP180;59391;52.504;13.438;2023-03-01T01:49:51;102640.00;;;5.00
71564;BMP180;59391;52.504;13.438;2023-03-01T01:55:07;102651.00;;;5.00
71564;BMP180;59391;52.504;13.438;2023-03-01T01:57:42;102648.00;;;4.90
71564;BMP180;59391;52.504;13.438;2023-03-01T02:00:15;102659.00;;;4.90
71564;BMP180;59391;52.504;13.438;2023-03-01T02:02:45;102659.00;;;4.90
71564;BMP180;59391;52.504;13.438;2023-03-01T02:05:45;102663.00;;;4.90
71564;BMP180;59391;52.504;13.438;2023-03-01T02:08:14;102673.00;;;4.90
71564;BMP180;59391;52.504;13.438;2023-03-01T02:10:42;102658.00;;;4.90
71564;BMP180;59391;52.504;13.438;2023-03-01T02:13:08;102678.00;;;4.90
71564;BMP180;59391;52.504;13.438;2023-03-01T02:15:37;102661.00;;;4.90
71564;BMP180;59391;52.504;13.438;2023-03-01T02:18:04;102668.00;;;4.90
71564;BMP180;59391;52.504;13.438;2023-03-01T02:20:40;102665.00;;;4.90
71564;BMP180;59391;52.504;13.438;2023-03-01T02:23:11;102665.00;;;4.80
71564;BMP180;59391;52.504;13.438;2023-03-01T02:26:01;102649.00;;;4.80
71564;BMP180;59391;52.504;13.438;2023-03-01T02:28:38;102656.00;;;4.80
71564;BMP180;59391;52.504;13.438;2023-03-01T02:31:09;102660.00;;;4.80
71564;BMP180;59391;52.504;13.438;2023-03-01T02:33:55;102665.00;;;4.80
71564;BMP180;59391;52.504;13.438;2023-03-01T02:36:31;102671.00;;;4.70
71564;BMP180;59391;52.504;13.438;2023-03-01T02:39:02;102678.00;;;4.70
71564;BMP180;59391;52.504;13.438;2023-03-01T02:41:32;102670.00;;;4.70
71564;BMP180;59391;52.504;13.438;2023-03-01T02:43:59;102657.00;;;4.70
71564;BMP180;59391;52.504;13.438;2023-03-01T02:46:26;102664.00;;;4.70
71564;BMP180;59391;52.504;13.438;2023-03-01T02:48:55;102661.00;;;4.70
71564;BMP180;59391;52.504;13.438;2023-03-01T02:51:32;102660.00;;;4.70
71564;BMP180;59391;52.504;13.438;2023-03-01T02:54:25;102650.00;;;4.70
71564;BMP180;59391;52.504;13.438;2023-03-01T02:56:53;102656.00;;;4.70
71564;BMP180;59391;52.504;13.438;2023-03-01T02:59:22;102653.00;;;4.70
71564;BMP180;59391;52.504;13.438;2023-03-01T03:01:49;102630.00;;;4.70
71564;BMP180;59391;52.504;13.438;2023-03-01T03:04:18;102626.00;;;4.60
71564;BMP180;59391;52.504;13.438;2023-03-01T03:06:45;102629.00;;;4.60
71564;BMP180;59391;52.504;13.438;2023-03-01T03:09:13;102641.00;;;4.60
71564;BMP180;59391;52.504;13.438;2023-03-01T03:11:39;102631.00;;;4.60
71564;BMP180;59391;52.504;13.438;2023-03-01T03:14:07;102618.00;;;4.60
71564;BMP180;59391;52.504;13.438;2023-03-01T03:16:45;102638.00;;;4.60
71564;BMP180;59391;52.504;13.438;2023-03-01T03:19:11;102621.00;;;4.60
71564;BMP180;59391;52.504;13.438;2023-03-01T03:21:37;102641.00;;;4.60
71564;BMP180;59391;52.504;13.438;2023-03-01T03:24:04;102645.00;;;4.60
71564;BMP180;59391;52.504;13.438;2023-03-01T03:26:30;102633.00;;;4.50
71564;BMP180;59391;52.504;13.438;2023-03-01T03:28:56;102630.00;;;4.50
71564;BMP180;59391;52.504;13.438;2023-03-01T03:31:22;102627.00;;;4.50
71564;BMP180;59391;52.504;13.438;2023-03-01T03:33:48;102628.00;;;4.50
71564;BMP180;59391;52.504;13.438;2023-03-01T03:36:21;102624.00;;;4.50
71564;BMP180;59391;52.504;13.438;2023-03-01T03:38:48;102624.00;;;4.50
71564;BMP180;59391;52.504;13.438;2023-03-01T03:41:15;102621.00;;;4.50
71564;BMP180;59391;52.504;13.438;2023-03-01T03:43:43;102621.00;;;4.50
71564;BMP180;59391;52.504;13.438;2023-03-01T03:46:11;102613.00;;;4.50
71564;BMP180;59391;52.504;13.438;2023-03-01T03:48:42;102610.00;;;4.40
71564;BMP180;59391;52.504;13.438;2023-03-01T03:51:17;102616.00;;;4.40
71564;BMP180;59391;52.504;13.438;2023-03-01T03:53:43;102604.00;;;4.40
71564;BMP180;59391;52.504;13.438;2023-03-01T03:56:09;102602.00;;;4.40
71564;BMP180;59391;52.504;13.438;2023-03-01T03:58:36;102592.00;;;4.40
71564;BMP180;59391;52.504;13.438;2023-03-01T04:01:02;102600.00;;;4.40
71564;BMP180;59391;52.504;13.438;2023-03-01T04:03:29;102595.00;;;4.40
71564;BMP180;59391;52.504;13.438;2023-03-01T04:05:58;102604.00;;;4.40
71564;BMP180;59391;52.504;13.438;2023-03-01T04:08:24;102608.00;;;4.40
71564;BMP180;59391;52.504;13.438;2023-03-01T04:10:53;102606.00;;;4.40
71564;BMP180;59391;52.504;13.438;2023-03-01T04:13:22;102605.00;;;4.40
71564;BMP180;59391;52.504;13.438;2023-03-01T04:15:52;102606.00;;;4.40
71564;BMP180;59391;52.504;13.438;2023-03-01T04:18:20;102606.00;;;4.40
71564;BMP180;59391;52.504;13.438;2023-03-01T04:20:46;102616.00;;;4.30
71564;BMP180;59391;52.504;13.438;2023-03-01T04:23:18;102607.00;;;4.30
71564;BMP180;59391;52.504;13.438;2023-03-01T04:25:53;102604.00;;;4.30
71564;BMP180;59391;52.504;13.438;2023-03-01T04:28:29;102602.00;;;4.30
71564;BMP180;59391;52.504;13.438;2023-03-01T04:30:58;102591.00;;;4.30
71564;BMP180;59391;52.504;13.438;2023-03-01T04:33:25;102597.00;;;4.30
71564;BMP180;59391;52.504;13.438;2023-03-01T04:35:51;102601.00;;;4.30
71564;BMP180;59391;52.504;13.438;2023-03-01T04:38:20;102580.00;;;4.30
71564;BMP180;59391;52.504;13.438;2023-03-01T04:40:46;102579.00;;;4.30
71564;BMP180;59391;52.504;13.438;2023-03-01T04:43:12;102590.00;;;4.30
71564;BMP180;59391;52.504;13.438;2023-03-01T04:45:42;102588.00;;;4.20
71564;BMP180;59391;52.504;13.438;2023-03-01T04:48:08;102580.00;;;4.20
71564;BMP180;59391;52.504;13.438;2023-03-01T04:50:34;102590.00;;;4.20
71564;BMP180;59391;52.504;13.438;2023-03-01T04:53:00;102584.00;;;4.20
71564;BMP180;59391;52.504;13.438;2023-03-01T04:55:27;102578.00;;;4.20
71564;BMP180;59391;52.504;13.438;2023-03-01T04:57:53;102587.00;;;4.20
71564;BMP180;59391;52.504;13.438;2023-03-01T05:00:21;102597.00;;;4.20
71564;BMP180;59391;52.504;13.438;2023-03-01T05:02:56;102596.00;;;4.20
71564;BMP180;59391;52.504;13.438;2023-03-01T05:05:26;102590.00;;;4.20
71564;BMP180;59391;52.504;13.438;2023-03-01T05:07:55;102594.00;;;4.20
71564;BMP180;59391;52.504;13.438;2023-03-01T05:10:23;102589.00;;;4.20
71564;BMP180;59391;52.504;13.438;2023-03-01T05:12:49;102589.00;;;4.20
71564;BMP180;59391;52.504;13.438;2023-03-01T05:15:14;102573.00;;;4.20
71564;BMP180;59391;52.504;13.438;2023-03-01T05:17:40;102596.00;;;4.10
71564;BMP180;59391;52.504;13.438;2023-03-01T05:20:06;102580.00;;;4.10
71564;BMP180;59391;52.504;13.438;2023-03-01T05:22:35;102590.00;;;4.10
71564;BMP180;59391;52.504;13.438;2023-03-01T05:25:03;102602.00;;;4.10
71564;BMP180;59391;52.504;13.438;2023-03-01T05:27:28;102586.00;;;4.10
71564;BMP180;59391;52.504;13.438;2023-03-01T05:29:55;102588.00;;;4.10
71564;BMP180;59391;52.504;13.438;2023-03-01T05:32:21;102581.00;;;4.10
71564;BMP180;59391;52.504;13.438;2023-03-01T05:34:46;102582.00;;;4.10
71564;BMP180;59391;52.504;13.438;2023-03-01T05:37:13;102578.00;;;4.10
71564;BMP180;59391;52.504;13.438;2023-03-01T05:39:39;102585.00;;;4.10
71564;BMP180;59391;52.504;13.438;2023-03-01T05:42:05;102589.00;;;4.10
71564;BMP180;59391;52.504;13.438;2023-03-01T05:44:31;102581.00;;;4.10
71564;BMP180;59391;52.504;13.438;2023-03-01T05:46:57;102585.00;;;4.10
71564;BMP180;59391;52.504;13.438;2023-03-01T05:49:23;102571.00;;;4.10
71564;BMP180;59391;52.504;13.438;2023-03-01T05:51:53;102556.00;;;4.10
71564;BMP180;59391;52.504;13.438;2023-03-01T05:54:20;102571.00;;;4.00
71564;BMP180;59391;52.504;13.438;2023-03-01T05:56:47;102580.00;;;4.10
71564;BMP180;59391;52.504;13.438;2023-03-01T05:59:13;102569.00;;;4.00
71564;BMP180;59391;52.504;13.438;2023-03-01T06:01:40;102575.00;;;4.10
71564;BMP180;59391;52.504;13.438;2023-03-01T06:04:06;102577.00;;;4.10
71564;BMP180;59391;52.504;13.438;2023-03-01T06:06:36;102572.00;;;4.10
71564;BMP180;59391;52.504;13.438;2023-03-01T06:09:04;102589.00;;;4.10
71564;BMP180;59391;52.504;13.438;2023-03-01T06:11:30;102580.00;;;4.10
71564;BMP180;59391;52.504;13.438;2023-03-01T06:13:55;102583.00;;;4.10
71564;BMP180;59391;52.504;13.438;2023-03-01T06:16:21;102580.00;;;4.10
71564;BMP180;59391;52.504;13.438;2023-03-01T06:18:46;102571.00;;;4.10
71564;BMP180;59391;52.504;13.438;2023-03-01T06:21:12;102581.00;;;4.10
71564;BMP180;59391;52.504;13.438;2023-03-01T06:23:38;102582.00;;;4.20
71564;BMP180;59391;52.504;13.438;2023-03-01T06:26:09;102574.00;;;4.20
71564;BMP180;59391;52.504;13.438;2023-03-01T06:28:35;102585.00;;;4.20
71564;BMP180;59391;52.504;13.438;2023-03-01T06:31:01;102578.00;;;4.20
71564;BMP180;59391;52.504;13.438;2023-03-01T06:33:27;102583.00;;;4.30
71564;BMP180;59391;52.504;13.438;2023-03-01T06:35:55;102584.00;;;4.30
71564;BMP180;59391;52.504;13.438;2023-03-01T06:38:22;102588.00;;;4.30
71564;BMP180;59391;52.504;13.438;2023-03-01T06:40:53;102589.00;;;4.30
71564;BMP180;59391;52.504;13.438;2023-03-01T06:43:20;102592.00;;;4.40
71564;BMP180;59391;52.504;13.438;2023-03-01T06:45:45;102594.00;;;4.40
71564;BMP180;59391;52.504;13.438;2023-03-01T06:48:11;102595.00;;;4.50
71564;BMP180;59391;52.504;13.438;2023-03-01T06:50:37;102587.00;;;4.50
71564;BMP180;59391;52.504;13.438;2023-03-01T06:53:03;102600.00;;;4.50
71564;BMP180;59391;52.504;13.438;2023-03-01T06:55:30;102602.00;;;4.60
71564;BMP180;59391;52.504;13.438;2023-03-01T06:57:57;102596.00;;;4.60
71564;BMP180;59391;52.504;13.438;2023-03-01T07:00:24;102588.00;;;4.60
71564;BMP180;59391;52.504;13.438;2023-03-01T07:02:51;102596.00;;;4.70
71564;BMP180;59391;52.504;13.438;2023-03-01T07:05:16;102593.00;;;4.70
71564;BMP180;59391;52.504;13.438;2023-03-01T07:07:42;102583.00;;;4.80
71564;BMP180;59391;52.504;13.438;2023-03-01T07:10:09;102602.00;;;4.80
71564;BMP180;59391;52.504;13.438;2023-03-01T07:12:35;102593.00;;;4.90
71564;BMP180;59391;52.504;13.438;2023-03-01T07:15:00;102590.00;;;4.90
71564;BMP180;59391;52.504;13.438;2023-03-01T07:17:26;102603.00;;;5.00
71564;BMP180;59391;52.504;13.438;2023-03-01T07:19:51;102603.00;;;5.00
71564;BMP180;59391;52.504;13.438;2023-03-01T07:22:17;102602.00;;;5.00
71564;BMP180;59391;52.504;13.438;2023-03-01T07:24:43;102609.00;;;5.10
71564;BMP180;59391;52.504;13.438;2023-03-01T07:27:10;102603.00;;;5.20
71564;BMP180;59391;52.504;13.438;2023-03-01T07:29:36;102602.00;;;5.20
71564;BMP180;59391;52.504;13.438;2023-03-01T07:32:03;102588.00;;;5.20
71564;BMP180;59391;52.504;13.438;2023-03-01T07:34:29;102609.00;;;5.30
71564;BMP180;59391;52.504;13.438;2023-03-01T07:36:55;102593.00;;;5.30
71564;BMP180;59391;52.504;13.438;2023-03-01T07:39:21;102605.00;;;5.40
71564;BMP180;59391;52.504;13.438;2023-03-01T07:41:49;102603.00;;;5.40
71564;BMP180;59391;52.504;13.438;2023-03-01T07:44:14;102602.00;;;5.50
71564;BMP180;59391;52.504;13.438;2023-03-01T07:46:41;102594.00;;;5.50
71564;BMP180;59391;52.504;13.438;2023-03-01T07:49:07;102585.00;;;5.60
71564;BMP180;59391;52.504;13.438;2023-03-01T07:51:33;102586.00;;;5.60
71564;BMP180;59391;52.504;13.438;2023-03-01T07:53:58;102594.00;;;5.70
71564;BMP180;59391;52.504;13.438;2023-03-01T07:56:24;102589.00;;;5.80
71564;BMP180;59391;52.504;13.438;2023-03-01T07:58:53;102592.00;;;5.80
71564;BMP180;59391;52.504;13.438;2023-03-01T08:01:20;102601.00;;;5.90
71564;BMP180;59391;52.504;13.438;2023-03-01T08:03:47;102598.00;;;6.00
71564;BMP180;59391;52.504;13.438;2023-03-01T08:06:15;102594.00;;;6.00
71564;BMP180;59391;52.504;13.438;2023-03-01T08:08:41;102605.00;;;6.10
71564;BMP180;59391;52.504;13.438;2023-03-01T08:11:10;102590.00;;;6.50
71564;BMP180;59391;52.504;13.438;2023-03-01T08:13:36;102586.00;;;7.10
71564;BMP180;59391;52.504;13.438;2023-03-01T08:16:11;102594.00;;;7.90
71564;BMP180;59391;52.504;13.438;2023-03-01T08:18:37;102594.00;;;8.80
71564;BMP180;59391;52.504;13.438;2023-03-01T08:21:08;102578.00;;;9.70
71564;BMP180;59391;52.504;13.438;2023-03-01T08:23:34;102582.00;;;10.40
71564;BMP180;59391;52.504;13.438;2023-03-01T08:26:15;102580.00;;;11.20
71564;BMP180;59391;52.504;13.438;2023-03-01T08:28:42;102569.00;;;11.90
71564;BMP180;59391;52.504;13.438;2023-03-01T08:31:21;102585.00;;;12.50
71564;BMP180;59391;52.504;13.438;2023-03-01T08:33:49;102577.00;;;12.90
71564;BMP180;59391;52.504;13.438;2023-03-01T08:36:23;102577.00;;;13.20
71564;BMP180;59391;52.504;13.438;2023-03-01T08:38:49;102566.00;;;13.40
71564;BMP180;59391;52.504;13.438;2023-03-01T08:41:15;102575.00;;;13.40
71564;BMP180;59391;52.504;13.438;2023-03-01T08:43:41;102565.00;;;13.40
71564;BMP180;59391;52.504;13.438;2023-03-01T08:46:07;102571.00;;;13.20
71564;BMP180;59391;52.504;13.438;2023-03-01T08:48:32;102569.00;;;13.10
71564;BMP180;59391;52.504;13.438;2023-03-01T08:51:12;102571.00;;;13.00
71564;BMP180;59391;52.504;13.438;2023-03-01T08:53:39;102578.00;;;13.00
71564;BMP180;59391;52.504;13.438;2023-03-01T08:56:06;102568.00;;;13.00
71564;BMP180;59391;52.504;13.438;2023-03-01T08:58:32;102567.00;;;13.10
71564;BMP180;59391;52.504;13.438;2023-03-01T09:00:58;102561.00;;;13.10
71564;BMP180;59391;52.504;13.438;2023-03-01T09:03:24;102550.00;;;13.20
71564;BMP180;59391;52.504;13.438;2023-03-01T09:05:51;102552.00;;;13.30
71564;BMP180;59391;52.504;13.438;2023-03-01T09:08:18;102556.00;;;13.40
71564;BMP180;59391;52.504;13.438;2023-03-01T09:10:44;102548.00;;;13.50
71564;BMP180;59391;52.504;13.438;2023-03-01T09:13:10;102549.00;;;13.70
71564;BMP180;59391;52.504;13.438;2023-03-01T09:15:39;102548.00;;;14.10
71564;BMP180;59391;52.504;13.438;2023-03-01T09:18:05;102550.00;;;14.50
71564;BMP180;59391;52.504;13.438;2023-03-01T09:20:31;102550.00;;;15.00
71564;BMP180;59391;52.504;13.438;2023-03-01T09:22:57;102556.00;;;15.40
71564;BMP180;59391;52.504;13.438;2023-03-01T09:25:24;102549.00;;;15.90
71564;BMP180;59391;52.504;13.438;2023-03-01T09:27:53;102546.00;;;16.20
71564;BMP180;59391;52.504;13.438;2023-03-01T09:30:20;102550.00;;;16.60
71564;BMP180;59391;52.504;13.438;2023-03-01T09:32:46;102549.00;;;16.90
71564;BMP180;59391;52.504;13.438;2023-03-01T09:35:13;102544.00;;;17.10
71564;BMP180;59391;52.504;13.438;2023-03-01T09:37:39;102547.00;;;17.40
71564;BMP180;59391;52.504;13.438;2023-03-01T09:40:14;102542.00;;;17.80
71564;BMP180;59391;52.504;13.438;2023-03-01T09:42:52;102542.00;;;18.10
71564;BMP180;59391;52.504;13.438;2023-03-01T09:45:35;102540.00;;;18.50
71564;BMP180;59391;52.504;13.438;2023-03-01T09:48:06;102554.00;;;18.80
71564;BMP180;59391;52.504;13.438;2023-03-01T09:50:39;102546.00;;;19.10
71564;BMP180;59391;52.504;13.438;2023-03-01T09:53:19;102556.00;;;19.40
71564;BMP180;59391;52.504;13.438;2023-03-01T09:56:25;102549.00;;;19.70
71564;BMP180;59391;52.504;13.438;2023-03-01T09:59:28;102555.00;;;19.90
71564;BMP180;59391;52.504;13.438;2023-03-01T10:02:37;102557.00;;;20.00
71564;BMP180;59391;52.504;13.438;2023-03-01T10:08:06;102550.00;;;20.30
71564;BMP180;59391;52.504;13.438;2023-03-01T10:10:44;102548.00;;;20.60
71564;BMP180;59391;52.504;13.438;2023-03-01T10:15:55;102554.00;;;21.20
71564;BMP180;59391;52.504;13.438;2023-03-01T10:18:28;102553.00;;;21.60
71564;BMP180;59391;52.504;13.438;2023-03-01T10:21:02;102559.00;;;21.70
71564;BMP180;59391;52.504;13.438;2023-03-01T10:23:32;102555.00;;;21.70
71564;BMP180;59391;52.504;13.438;2023-03-01T10:26:25;102553.00;;;21.80
71564;BMP180;59391;52.504;13.438;2023-03-01T10:29:06;102545.00;;;22.00
71564;BMP180;59391;52.504;13.438;2023-03-01T10:31:44;102535.00;;;22.20
71564;BMP180;59391;52.504;13.438;2023-03-01T10:36:42;102544.00;;;22.60
71564;BMP180;59391;52.504;13.438;2023-03-01T10:39:19;102539.00;;;22.90
71564;BMP180;59391;52.504;13.438;2023-03-01T10:42:00;102532.00;;;23.30
71564;BMP180;59391;52.504;13.438;2023-03-01T10:44:42;102536.00;;;23.60
71564;BMP180;59391;52.504;13.438;2023-03-01T10:47:27;102526.00;;;23.80
71564;BMP180;59391;52.504;13.438;2023-03-01T10:50:21;102528.00;;;24.00
71564;BMP180;59391;52.504;13.438;2023-03-01T10:53:03;102541.00;;;24.30
71564;BMP180;59391;52.504;13.438;2023-03-01T10:55:40;102523.00;;;24.60
71564;BMP180;59391;52.504;13.438;2023-03-01T11:00:47;102516.00;;;25.00
71564;BMP180;59391;52.504;13.438;2023-03-01T11:03:19;102520.00;;;25.00
71564;BMP180;59391;52.504;13.438;2023-03-01T11:06:06;102522.00;;;25.00
71564;BMP180;59391;52.504;13.438;2023-03-01T11:08:48;102511.00;;;25.10
71564;BMP180;59391;52.504;13.438;2023-03-01T11:14:06;102506.00;;;25.40
71564;BMP180;59391;52.504;13.438;2023-03-01T11:16:37;102507.00;;;25.30
71564;BMP180;59391;52.504;13.438;2023-03-01T11:19:17;102499.00;;;25.30
71564;BMP180;59391;52.504;13.438;2023-03-01T11:21:59;102490.00;;;25.40
71564;BMP180;59391;52.504;13.438;2023-03-01T11:24:53;102497.00;;;25.70
71564;BMP180;59391;52.504;13.438;2023-03-01T11:27:32;102497.00;;;25.80
71564;BMP180;59391;52.504;13.438;2023-03-01T11:30:23;102497.00;;;25.80
71564;BMP180;59391;52.504;13.438;2023-03-01T11:35:37;102488.00;;;25.90
71564;BMP180;59391;52.504;13.438;2023-03-01T11:38:20;102488.00;;;26.20
71564;BMP180;59391;52.504;13.438;2023-03-01T11:41:00;102482.00;;;26.50
71564;BMP180;59391;52.504;13.438;2023-03-01T11:43:47;102477.00;;;26.90
71564;BMP180;59391;52.504;13.438;2023-03-01T11:52:31;102491.00;;;27.60
71564;BMP180;59391;52.504;13.438;2023-03-01T11:55:24;102501.00;;;27.50
71564;BMP180;59391;52.504;13.438;2023-03-01T11:58:20;102495.00;;;27.70
71564;BMP180;59391;52.504;13.438;2023-03-01T12:04:34;102495.00;;;28.20
71564;BMP180;59391;52.504;13.438;2023-03-01T12:07:16;102483.00;;;28.30
71564;BMP180;59391;52.504;13.438;2023-03-01T12:12:58;102481.00;;;28.80
71564;BMP180;59391;52.504;13.438;2023-03-01T12:15:50;102473.00;;;29.20
71564;BMP180;59391;52.504;13.438;2023-03-01T12:22:07;102469.00;;;29.80
71564;BMP180;59391;52.504;13.438;2023-03-01T12:25:08;102474.00;;;29.90
71564;BMP180;59391;52.504;13.438;2023-03-01T12:28:17;102460.00;;;30.00
71564;BMP180;59391;52.504;13.438;2023-03-01T12:34:40;102457.00;;;30.50
71564;BMP180;59391;52.504;13.438;2023-03-01T12:37:56;102450.00;;;30.30
71564;BMP180;59391;52.504;13.438;2023-03-01T12:43:58;102443.00;;;30.60
71564;BMP180;59391;52.504;13.438;2023-03-01T12:46:54;102442.00;;;30.60
71564;BMP180;59391;52.504;13.438;2023-03-01T12:50:01;102434.00;;;30.50
71564;BMP180;59391;52.504;13.438;2023-03-01T12:52:44;102443.00;;;30.40
71564;BMP180;59391;52.504;13.438;2023-03-01T12:58:11;102422.00;;;30.10
71564;BMP180;59391;52.504;13.438;2023-03-01T13:04:35;102425.00;;;30.10
71564;BMP180;59391;52.504;13.438;2023-03-01T13:07:27;102426.00;;;29.90
71564;BMP180;59391;52.504;13.438;2023-03-01T13:10:20;102414.00;;;29.70
71564;BMP180;59391;52.504;13.438;2023-03-01T13:17:55;102413.00;;;28.90
71564;BMP180;59391;52.504;13.438;2023-03-01T13:20:29;102422.00;;;28.40
71564;BMP180;59391;52.504;13.438;2023-03-01T13:23:07;102410.00;;;28.30
71564;BMP180;59391;52.504;13.438;2023-03-01T13:25:34;102403.00;;;28.20
71564;BMP180;59391;52.504;13.438;2023-03-01T13:31:03;102396.00;;;27.80
71564;BMP180;59391;52.504;13.438;2023-03-01T13:35:57;102396.00;;;27.40
71564;BMP180;59391;52.504;13.438;2023-03-01T13:41:16;102377.00;;;26.50
71564;BMP180;59391;52.504;13.438;2023-03-01T13:43:45;102387.00;;;25.90
71564;BMP180;59391;52.504;13.438;2023-03-01T13:46:23;102386.00;;;25.40
71564;BMP180;59391;52.504;13.438;2023-03-01T13:48:56;102383.00;;;25.10
71564;BMP180;59391;52.504;13.438;2023-03-01T13:51:28;102378.00;;;25.10
71564;BMP180;59391;52.504;13.438;2023-03-01T13:53:56;102383.00;;;25.20
71564;BMP180;59391;52.504;13.438;2023-03-01T13:56:36;102375.00;;;25.20
71564;BMP180;59391;52.504;13.438;2023-03-01T13:59:21;102377.00;;;25.20
71564;BMP180;59391;52.504;13.438;2023-03-01T14:01:59;102376.00;;;25.60
71564;BMP180;59391;52.504;13.438;2023-03-01T14:04:31;102375.00;;;25.80
71564;BMP180;59391;52.504;13.438;2023-03-01T14:07:19;102367.00;;;25.60
71564;BMP180;59391;52.504;13.438;2023-03-01T14:09:50;102349.00;;;25.30
71564;BMP180;59391;52.504;13.438;2023-03-01T14:15:43;102345.00;;;25.60
71564;BMP180;59391;52.504;13.438;2023-03-01T14:18:21;102340.00;;;26.10
71564;BMP180;59391;52.504;13.438;2023-03-01T14:20:49;102340.00;;;26.40
71564;BMP180;59391;52.504;13.438;2023-03-01T14:23:21;102338.00;;;26.70
71564;BMP180;59391;52.504;13.438;2023-03-01T14:25:57;102348.00;;;27.00
71564;BMP180;59391;52.504;13.438;2023-03-01T14:28:27;102341.00;;;27.10
71564;BMP180;59391;52.504;13.438;2023-03-01T14:30:59;102343.00;;;27.10
71564;BMP180;59391;52.504;13.438;2023-03-01T14:33:36;102335.00;;;26.90
71564;BMP180;59391;52.504;13.438;2023-03-01T14:36:07;102332.00;;;26.80
71564;BMP180;59391;52.504;13.438;2023-03-01T14:38:44;102335.00;;;26.60
71564;BMP180;59391;52.504;13.438;2023-03-01T14:41:19;102332.00;;;26.30
71564;BMP180;59391;52.504;13.438;2023-03-01T14:43:49;102324.00;;;26.10
71564;BMP180;59391;52.504;13.438;2023-03-01T14:49:18;102320.00;;;25.80
71564;BMP180;59391;52.504;13.438;2023-03-01T14:51:58;102316.00;;;25.50
71564;BMP180;59391;52.504;13.438;2023-03-01T14:54:43;102316.00;;;25.20
71564;BMP180;59391;52.504;13.438;2023-03-01T14:57:20;102309.00;;;25.00
71564;BMP180;59391;52.504;13.438;2023-03-01T14:59:52;102307.00;;;24.60
71564;BMP180;59391;52.504;13.438;2023-03-01T15:02:24;102307.00;;;24.10
71564;BMP180;59391;52.504;13.438;2023-03-01T15:04:55;102315.00;;;23.70
71564;BMP180;59391;52.504;13.438;2023-03-01T15:07:31;102305.00;;;23.50
71564;BMP180;59391;52.504;13.438;2023-03-01T15:09:59;102305.00;;;23.40
71564;BMP180;59391;52.504;13.438;2023-03-01T15:14:58;102311.00;;;23.30
71564;BMP180;59391;52.504;13.438;2023-03-01T15:17:38;102304.00;;;22.80
71564;BMP180;59391;52.504;13.438;2023-03-01T15:20:15;102306.00;;;22.30
71564;BMP180;59391;52.504;13.438;2023-03-01T15:22:44;102312.00;;;21.70
71564;BMP180;59391;52.504;13.438;2023-03-01T15:25:20;102312.00;;;21.00
71564;BMP180;59391;52.504;13.438;2023-03-01T15:27:49;102308.00;;;20.50